Time,TemperatureF,DewpointF,PressureIn,WindDirection,WindDirectionDegrees,WindSpeedMPH,WindSpeedGustMPH,Humidity,HourlyPrecipIn,Conditions,Clouds,dailyrainin,SoftwareType,DateUTC
2013-12-06 00:02:00,-1.0,-11.0,-100.00,West,280,7.0,16.0,62,0.00,,,-99.99,,2013-12-06 06:02:00,
2013-12-06 00:12:00,-1.0,-11.0,-100.00,West,280,7.0,16.0,62,0.00,,,-99.99,,2013-12-06 06:12:00,
2013-12-06 00:42:00,-2.0,-12.0,-100.00,West,275,10.0,18.0,63,0.00,,,-99.99,,2013-12-06 06:42:00,
2013-12-06 00:52:00,-2.0,-12.0,-100.00,West,275,10.0,18.0,63,0.00,,,-99.99,,2013-12-06 06:52:00,
2013-12-06 01:02:00,-2.0,-12.0,-100.00,West,275,10.0,18.0,63,0.00,,,-99.99,,2013-12-06 07:02:00,
2013-12-06 01:11:00,-2.0,-12.0,-100.00,West,275,10.0,18.0,63,0.00,,,-99.99,,2013-12-06 07:11:00,
2013-12-06 01:52:00,-3.0,-12.0,-100.00,West,265,11.0,19.0,65,0.00,,,-99.99,,2013-12-06 07:52:00,
2013-12-06 02:02:00,-3.0,-12.0,-100.00,West,265,11.0,19.0,65,0.00,,,-99.99,,2013-12-06 08:02:00,
2013-12-06 02:12:00,-3.0,-12.0,-100.00,West,265,11.0,19.0,65,0.00,,,-99.99,,2013-12-06 08:12:00,
2013-12-06 02:52:00,-4.0,-13.0,-100.00,West,275,8.0,17.0,65,0.00,,,-99.99,,2013-12-06 08:52:00,
2013-12-06 03:02:00,-4.0,-13.0,-100.00,West,275,8.0,17.0,65,0.00,,,-99.99,,2013-12-06 09:02:00,
2013-12-06 03:12:00,-4.0,-13.0,-100.00,West,275,8.0,17.0,65,0.00,,,-99.99,,2013-12-06 09:12:00,
2013-12-06 03:54:00,-5.0,-14.0,-100.00,North,-999,-999.0,-999.0,66,0.00,,,-99.99,,2013-12-06 09:54:00,
2013-12-06 04:03:00,-5.0,-14.0,-100.00,North,-999,-999.0,-999.0,66,0.00,,,-99.99,,2013-12-06 10:03:00,
2013-12-06 04:13:00,-5.0,-14.0,-100.00,North,-999,-999.0,-999.0,66,0.00,,,-99.99,,2013-12-06 10:13:00,
2013-12-06 04:43:00,-5.0,-14.0,-100.00,West,270,6.0,12.0,66,0.00,,,-99.99,,2013-12-06 10:43:00,
2013-12-06 04:52:00,-5.0,-14.0,-100.00,West,270,6.0,12.0,66,0.00,,,-99.99,,2013-12-06 10:52:00,
2013-12-06 05:02:00,-5.0,-14.0,-100.00,West,270,6.0,12.0,66,0.00,,,-99.99,,2013-12-06 11:02:00,
2013-12-06 05:12:00,-5.0,-14.0,-100.00,West,270,6.0,12.0,66,0.00,,,-99.99,,2013-12-06 11:12:00,
2013-12-06 05:54:00,-6.0,-14.0,-100.00,West,275,7.0,12.0,66,0.00,,,-99.99,,2013-12-06 11:54:00,
2013-12-06 06:02:00,-6.0,-14.0,-100.00,West,275,7.0,12.0,66,0.00,,,-99.99,,2013-12-06 12:02:00,
2013-12-06 06:12:00,-6.0,-14.0,-100.00,West,275,7.0,12.0,66,0.00,,,-99.99,,2013-12-06 12:12:00,
2013-12-06 06:42:00,-6.0,-15.0,-100.00,West,270,6.0,9.0,66,0.00,,,-99.99,,2013-12-06 12:42:00,
2013-12-06 06:52:00,-6.0,-15.0,-100.00,West,270,6.0,9.0,66,0.00,,,-99.99,,2013-12-06 12:52:00,
2013-12-06 07:01:00,-6.0,-15.0,-100.00,West,270,6.0,9.0,66,0.00,,,-99.99,,2013-12-06 13:01:00,
2013-12-06 07:11:00,-6.0,-15.0,-100.00,West,270,6.0,9.0,66,0.00,,,-99.99,,2013-12-06 13:11:00,
2013-12-06 07:42:00,-7.0,-15.0,-100.00,West,275,7.0,14.0,66,0.00,,,-99.99,,2013-12-06 13:42:00,
2013-12-06 07:52:00,-7.0,-15.0,-100.00,West,275,7.0,14.0,66,0.00,,,-99.99,,2013-12-06 13:52:00,
2013-12-06 08:02:00,-7.0,-15.0,-100.00,West,275,7.0,14.0,66,0.00,,,-99.99,,2013-12-06 14:02:00,
2013-12-06 08:11:00,-7.0,-15.0,-100.00,West,275,7.0,14.0,66,0.00,,,-99.99,,2013-12-06 14:11:00,
2013-12-06 08:42:00,-8.0,-16.0,-100.00,West,280,6.0,14.0,66,0.00,,,-99.99,,2013-12-06 14:42:00,
2013-12-06 08:53:00,-8.0,-16.0,-100.00,West,280,6.0,14.0,66,0.00,,,-99.99,,2013-12-06 14:53:00,
2013-12-06 09:02:00,-8.0,-16.0,-100.00,West,280,6.0,14.0,66,0.00,,,-99.99,,2013-12-06 15:02:00,
2013-12-06 09:12:00,-8.0,-16.0,-100.00,West,280,6.0,14.0,66,0.00,,,-99.99,,2013-12-06 15:12:00,
2013-12-06 09:13:00,-6.0,-16.0,-100.00,West,275,11.0,17.0,63,0.00,,,-99.99,,2013-12-06 15:13:00,
2013-12-06 09:44:00,-6.0,-16.0,-100.00,West,275,11.0,17.0,63,0.00,,,-99.99,,2013-12-06 15:44:00,
2013-12-06 09:54:00,-6.0,-16.0,-100.00,West,275,11.0,17.0,63,0.00,,,-99.99,,2013-12-06 15:54:00,
2013-12-06 10:03:00,-6.0,-16.0,-100.00,West,275,11.0,17.0,63,0.00,,,-99.99,,2013-12-06 16:03:00,
2013-12-06 10:43:00,-3.0,-14.0,-100.00,West,270,10.0,15.0,59,0.00,,,-99.99,,2013-12-06 16:43:00,
2013-12-06 10:53:00,-3.0,-14.0,-100.00,West,270,10.0,15.0,59,0.00,,,-99.99,,2013-12-06 16:53:00,
2013-12-06 11:02:00,-3.0,-14.0,-100.00,West,270,10.0,15.0,59,0.00,,,-99.99,,2013-12-06 17:02:00,
2013-12-06 11:12:00,-3.0,-14.0,-100.00,West,270,10.0,15.0,59,0.00,,,-99.99,,2013-12-06 17:12:00,
2013-12-06 11:43:00,1.0,-12.0,-100.00,West,270,6.0,17.0,54,0.00,,,-99.99,,2013-12-06 17:43:00,
2013-12-06 11:52:00,1.0,-12.0,-100.00,West,270,6.0,17.0,54,0.00,,,-99.99,,2013-12-06 17:52:00,
2013-12-06 12:02:00,1.0,-12.0,-100.00,West,270,6.0,17.0,54,0.00,,,-99.99,,2013-12-06 18:02:00,
2013-12-06 12:12:00,1.0,-12.0,-100.00,West,270,6.0,17.0,54,0.00,,,-99.99,,2013-12-06 18:12:00,
2013-12-06 12:42:00,4.0,-11.0,-100.00,West,275,9.0,15.0,49,0.00,,,-99.99,,2013-12-06 18:42:00,
2013-12-06 12:52:00,4.0,-11.0,-100.00,West,275,9.0,15.0,49,0.00,,,-99.99,,2013-12-06 18:52:00,
2013-12-06 13:02:00,4.0,-11.0,-100.00,West,275,9.0,15.0,49,0.00,,,-99.99,,2013-12-06 19:02:00,
2013-12-06 13:11:00,4.0,-11.0,-100.00,West,275,9.0,15.0,49,0.00,,,-99.99,,2013-12-06 19:11:00,
2013-12-06 18:52:00,1.0,-12.0,-100.00,West,275,7.0,15.0,55,0.00,,,-99.99,,2013-12-07 00:52:00,
2013-12-06 19:02:00,1.0,-12.0,-100.00,West,275,7.0,15.0,55,0.00,,,-99.99,,2013-12-07 01:02:00,
2013-12-06 19:11:00,1.0,-12.0,-100.00,West,275,7.0,15.0,55,0.00,,,-99.99,,2013-12-07 01:11:00,
2013-12-06 19:42:00,0.0,-12.0,-100.00,West,275,7.0,14.0,55,0.00,,,-99.99,,2013-12-07 01:42:00,
2013-12-06 19:52:00,0.0,-12.0,-100.00,West,275,7.0,14.0,55,0.00,,,-99.99,,2013-12-07 01:52:00,
2013-12-06 20:01:00,0.0,-12.0,-100.00,West,275,7.0,14.0,55,0.00,,,-99.99,,2013-12-07 02:01:00,
2013-12-06 20:11:00,0.0,-12.0,-100.00,West,275,7.0,14.0,55,0.00,,,-99.99,,2013-12-07 02:11:00,
2013-12-06 20:52:00,-1.0,-13.0,-100.00,West,270,6.0,11.0,57,0.00,,,-99.99,,2013-12-07 02:52:00,
2013-12-06 21:02:00,-1.0,-13.0,-100.00,West,270,6.0,11.0,57,0.00,,,-99.99,,2013-12-07 03:02:00,
2013-12-06 21:11:00,-1.0,-13.0,-100.00,West,270,6.0,11.0,57,0.00,,,-99.99,,2013-12-07 03:11:00,
2013-12-06 21:43:00,-2.0,-13.0,-100.00,West,265,6.0,9.0,59,0.00,,,-99.99,,2013-12-07 03:43:00,
2013-12-06 21:53:00,-2.0,-13.0,-100.00,West,265,6.0,9.0,59,0.00,,,-99.99,,2013-12-07 03:53:00,
2013-12-06 22:03:00,-2.0,-13.0,-100.00,West,265,6.0,9.0,59,0.00,,,-99.99,,2013-12-07 04:03:00,
2013-12-06 22:12:00,-2.0,-13.0,-100.00,West,265,6.0,9.0,59,0.00,,,-99.99,,2013-12-07 04:12:00,
2013-12-06 22:43:00,-3.0,-13.0,-100.00,West,260,4.0,9.0,61,0.00,,,-99.99,,2013-12-07 04:43:00,
2013-12-06 22:53:00,-3.0,-13.0,-100.00,West,260,4.0,9.0,61,0.00,,,-99.99,,2013-12-07 04:53:00,
2013-12-06 23:03:00,-3.0,-13.0,-100.00,West,260,4.0,9.0,61,0.00,,,-99.99,,2013-12-07 05:03:00,
2013-12-06 23:53:00,-3.0,-13.0,-100.00,West,270,4.0,11.0,62,0.00,,,-99.99,,2013-12-07 05:53:00,